createdAt,value
2022-08-29T00:02:52.755Z,17.15
2022-08-29T00:05:25.469Z,18.85
2022-08-29T00:07:54.863Z,17.85
2022-08-29T00:10:44.380Z,22.50
2022-08-29T00:13:17.142Z,20.55
2022-08-29T00:15:46.640Z,18.35
2022-08-29T00:18:16.454Z,18.17
2022-08-29T00:20:46.628Z,20.05
2022-08-29T00:24:06.012Z,19.52
2022-08-29T00:26:36.660Z,20.48
2022-08-29T00:29:06.515Z,18.90
2022-08-29T00:35:14.178Z,16.95
2022-08-29T00:37:44.145Z,17.08
2022-08-29T00:40:15.441Z,17.55
2022-08-29T00:47:40.396Z,21.13
2022-08-29T00:50:13.233Z,17.63
2022-08-29T00:56:30.620Z,15.90
2022-08-29T00:59:50.225Z,19.30
2022-08-29T01:02:20.057Z,19.95
2022-08-29T01:04:49.130Z,18.70
2022-08-29T01:07:20.500Z,18.80
2022-08-29T01:09:49.908Z,17.27
2022-08-29T01:13:15.232Z,16.20
2022-08-29T01:15:46.171Z,16.25
2022-08-29T01:18:17.317Z,16.85
2022-08-29T01:21:46.961Z,17.52
2022-08-29T01:28:36.316Z,16.23
2022-08-29T01:31:08.242Z,17.75
2022-08-29T01:33:42.355Z,18.90
2022-08-29T01:36:14.263Z,20.65
2022-08-29T01:38:44.176Z,17.13
2022-08-29T01:45:30.458Z,16.33
2022-08-29T01:48:03.038Z,19.92
2022-08-29T01:50:33.590Z,16.70
2022-08-29T01:53:59.573Z,19.15
2022-08-29T01:57:33.018Z,16.77
2022-08-29T02:00:04.126Z,19.95
2022-08-29T02:06:50.531Z,17.73
2022-08-29T02:17:53.802Z,16.45
2022-08-29T02:27:52.684Z,17.17
2022-08-29T02:30:21.880Z,18.67
2022-08-29T02:36:25.309Z,16.05
2022-08-29T02:38:56.590Z,17.83
2022-08-29T02:46:01.935Z,17.70
2022-08-29T02:48:33.114Z,19.70
2022-08-29T02:51:04.530Z,16.98
2022-08-29T02:53:55.310Z,18.38
2022-08-29T02:56:30.056Z,19.58
2022-08-29T02:59:04.660Z,17.45
2022-08-29T03:01:43.704Z,19.65
2022-08-29T03:04:17.113Z,19.80
2022-08-29T03:06:48.301Z,18.27
2022-08-29T03:13:26.268Z,18.48
2022-08-29T03:15:57.240Z,17.30
2022-08-29T03:18:30.002Z,16.38
2022-08-29T03:21:01.087Z,19.63
2022-08-29T03:23:32.259Z,23.50
2022-08-29T03:26:03.174Z,18.17
2022-08-29T03:41:03.428Z,17.40
2022-08-29T03:51:29.271Z,18.55
2022-08-29T03:54:00.128Z,18.10
2022-08-29T03:56:33.755Z,16.27
2022-08-29T03:59:38.931Z,16.30
2022-08-29T04:12:22.996Z,17.17
2022-08-29T04:14:53.647Z,15.70
2022-08-29T04:17:22.569Z,14.32
2022-08-29T04:20:55.490Z,20.77
2022-08-29T04:33:42.099Z,16.90
2022-08-29T04:36:14.998Z,16.55
2022-08-29T04:43:08.047Z,16.60
2022-08-29T04:45:37.545Z,20.23
2022-08-29T04:48:07.190Z,18.38
2022-08-29T04:50:36.694Z,16.98
2022-08-29T04:57:30.668Z,21.48
2022-08-29T05:00:01.951Z,23.55
2022-08-29T05:10:52.991Z,20.73
2022-08-29T05:19:16.135Z,19.33
2022-08-29T05:23:09.924Z,23.45
2022-08-29T05:25:45.897Z,18.85
2022-08-29T05:28:15.252Z,17.13
2022-08-29T05:30:44.369Z,18.98
2022-08-29T05:34:16.299Z,17.40
2022-08-29T05:37:03.087Z,19.17
2022-08-29T05:39:53.624Z,20.30
2022-08-29T05:42:24.908Z,22.65
2022-08-29T05:44:54.225Z,23.92
2022-08-29T05:51:47.219Z,19.13
2022-08-29T05:55:13.972Z,23.33
2022-08-29T05:57:44.503Z,20.75
2022-08-29T06:00:15.198Z,19.30
2022-08-29T06:02:45.734Z,18.23
2022-08-29T06:05:17.942Z,20.40
2022-08-29T06:07:48.667Z,20.65
2022-08-29T06:10:17.941Z,20.08
2022-08-29T06:12:49.209Z,20.05
2022-08-29T06:15:18.794Z,22.65
2022-08-29T06:17:50.084Z,21.25
2022-08-29T06:20:19.669Z,19.70
2022-08-29T06:27:13.813Z,21.20
2022-08-29T06:29:44.857Z,18.25
2022-08-29T06:32:42.376Z,25.38
2022-08-29T06:35:11.450Z,25.45
2022-08-29T06:40:10.582Z,18.98
2022-08-29T06:42:39.764Z,17.02
2022-08-29T06:47:40.523Z,20.77
2022-08-29T06:50:10.479Z,16.55
2022-08-29T06:52:47.860Z,17.10
2022-08-29T06:55:17.827Z,18.92
2022-08-29T06:57:53.426Z,25.55
2022-08-29T07:00:24.050Z,19.02
2022-08-29T07:03:23.170Z,22.17
2022-08-29T07:05:54.368Z,16.20
2022-08-29T07:08:24.086Z,19.23
2022-08-29T07:10:53.036Z,15.35
2022-08-29T07:15:52.484Z,17.50
2022-08-29T07:18:22.192Z,19.40
2022-08-29T07:20:51.644Z,21.40
2022-08-29T07:23:21.323Z,16.33
2022-08-29T07:25:52.987Z,16.60
2022-08-29T07:28:22.294Z,15.68
2022-08-29T07:30:56.250Z,18.88
2022-08-29T07:33:25.758Z,15.48
2022-08-29T07:35:54.898Z,20.33
2022-08-29T07:38:24.519Z,19.90
2022-08-29T07:40:59.702Z,21.10
2022-08-29T07:43:33.172Z,22.27
2022-08-29T07:46:08.489Z,20.60
2022-08-29T07:48:38.109Z,23.60
2022-08-29T07:51:10.596Z,23.58
2022-08-29T07:53:40.544Z,23.23
2022-08-29T07:56:10.795Z,22.40
2022-08-29T07:58:40.434Z,18.88
2022-08-29T08:01:16.025Z,29.70
2022-08-29T08:03:51.016Z,22.13
2022-08-29T08:06:20.986Z,20.42
2022-08-29T08:08:50.933Z,24.02
2022-08-29T08:11:21.144Z,19.73
2022-08-29T08:13:50.537Z,18.00
2022-08-29T08:16:22.198Z,17.50
2022-08-29T08:18:52.495Z,26.08
2022-08-29T08:21:22.580Z,21.60
2022-08-29T08:23:52.353Z,19.10
2022-08-29T08:26:22.215Z,22.98
2022-08-29T08:28:51.347Z,26.17
2022-08-29T08:31:22.963Z,19.13
2022-08-29T08:33:52.579Z,18.60
2022-08-29T08:36:24.565Z,20.60
2022-08-29T08:38:54.758Z,23.38
2022-08-29T08:41:45.885Z,23.45
2022-08-29T08:44:35.211Z,20.83
2022-08-29T08:47:09.079Z,17.90
2022-08-29T08:49:44.884Z,21.40
2022-08-29T08:52:18.080Z,22.92
2022-08-29T08:54:54.182Z,17.80
2022-08-29T08:57:24.218Z,17.50
2022-08-29T08:59:58.712Z,22.15
2022-08-29T09:02:37.790Z,22.25
2022-08-29T09:05:22.404Z,18.55
2022-08-29T09:08:03.186Z,24.50
2022-08-29T09:10:44.936Z,19.02
2022-08-29T09:13:24.219Z,18.45
2022-08-29T09:15:57.087Z,20.88
2022-08-29T09:18:35.136Z,17.83
2022-08-29T09:21:30.077Z,16.05
2022-08-29T09:23:59.827Z,24.77
2022-08-29T09:26:29.262Z,23.38
2022-08-29T09:28:59.289Z,22.58
2022-08-29T09:31:29.894Z,18.02
2022-08-29T09:34:03.502Z,24.15
2022-08-29T09:36:40.182Z,23.67
2022-08-29T09:39:18.999Z,23.73
2022-08-29T09:44:23.867Z,22.88
2022-08-29T09:47:11.862Z,27.25
2022-08-29T09:50:01.627Z,19.98
2022-08-29T09:52:31.413Z,18.60
2022-08-29T09:55:24.613Z,18.27
2022-08-29T09:58:01.386Z,16.13
2022-08-29T10:00:34.655Z,17.85
2022-08-29T10:03:05.529Z,17.95
2022-08-29T10:05:42.086Z,18.85
2022-08-29T10:08:29.654Z,18.27
2022-08-29T10:11:00.785Z,21.40
2022-08-29T10:13:37.583Z,17.95
2022-08-29T10:16:16.819Z,20.38
2022-08-29T10:18:50.864Z,22.85
2022-08-29T10:21:37.409Z,23.48
2022-08-29T10:24:24.357Z,22.80
2022-08-29T10:27:01.811Z,21.05
2022-08-29T10:29:49.735Z,21.77
2022-08-29T10:32:34.552Z,24.85
2022-08-29T10:35:13.236Z,31.30
2022-08-29T10:40:27.597Z,24.35
2022-08-29T10:43:17.438Z,20.00
2022-08-29T10:45:58.525Z,20.15
2022-08-29T10:48:32.411Z,26.08
2022-08-29T10:51:14.180Z,25.80
2022-08-29T10:53:53.974Z,21.08
2022-08-29T10:56:28.950Z,20.45
2022-08-29T10:59:08.175Z,24.95
2022-08-29T11:01:41.872Z,22.73
2022-08-29T11:04:18.967Z,23.63
2022-08-29T11:06:54.867Z,20.55
2022-08-29T11:09:31.364Z,23.80
2022-08-29T11:12:17.260Z,20.30
2022-08-29T11:14:51.278Z,16.65
2022-08-29T11:17:21.161Z,20.02
2022-08-29T11:19:54.587Z,16.00
2022-08-29T11:22:25.967Z,20.52
2022-08-29T11:25:00.810Z,17.70
2022-08-29T11:27:36.312Z,15.93
2022-08-29T11:30:08.554Z,16.15
2022-08-29T11:32:42.839Z,16.05
2022-08-29T11:35:14.600Z,19.77
2022-08-29T11:38:13.823Z,20.67
2022-08-29T11:43:59.361Z,18.98
2022-08-29T11:46:35.291Z,19.95
2022-08-29T11:49:21.401Z,19.20
2022-08-29T11:51:53.496Z,20.55
2022-08-29T11:54:41.164Z,18.67
2022-08-29T11:57:29.015Z,17.02
2022-08-29T12:00:06.918Z,19.83
2022-08-29T12:02:48.849Z,18.15
2022-08-29T12:05:33.130Z,21.15
2022-08-29T12:08:26.181Z,23.48
2022-08-29T12:10:55.465Z,21.35
2022-08-29T12:13:40.565Z,16.98
2022-08-29T12:16:12.410Z,18.80
2022-08-29T12:18:45.427Z,21.55
2022-08-29T12:21:33.268Z,20.60
2022-08-29T12:24:02.862Z,20.33
2022-08-29T12:26:43.558Z,17.73
2022-08-29T12:29:20.224Z,17.75
2022-08-29T12:32:22.442Z,20.13
2022-08-29T12:35:07.505Z,20.75
2022-08-29T12:37:45.342Z,19.33
2022-08-29T12:40:22.720Z,23.35
2022-08-29T12:43:01.244Z,19.63
2022-08-29T12:45:32.828Z,16.48
2022-08-29T12:48:07.179Z,18.80
2022-08-29T12:50:37.715Z,21.10
2022-08-29T12:53:08.185Z,19.00
2022-08-29T12:55:41.064Z,18.02
2022-08-29T12:58:10.499Z,20.13
2022-08-29T13:00:40.200Z,17.27
2022-08-29T13:03:15.181Z,16.45
2022-08-29T13:05:46.154Z,18.77
2022-08-29T13:08:18.004Z,16.95
2022-08-29T13:10:57.077Z,21.17
2022-08-29T13:13:27.718Z,20.90
2022-08-29T13:16:00.559Z,20.00
2022-08-29T13:18:44.315Z,21.08
2022-08-29T13:21:25.729Z,18.25
2022-08-29T13:24:04.013Z,17.92
2022-08-29T13:26:34.952Z,21.02
2022-08-29T13:29:23.013Z,18.20
2022-08-29T13:32:10.817Z,21.70
2022-08-29T13:35:01.714Z,22.42
2022-08-29T13:37:33.399Z,22.40
2022-08-29T13:40:32.656Z,23.58
2022-08-29T13:43:02.877Z,18.52
2022-08-29T13:45:31.916Z,24.85
2022-08-29T13:48:20.663Z,20.35
2022-08-29T13:50:51.214Z,23.33
2022-08-29T13:53:20.056Z,19.63
2022-08-29T13:58:22.752Z,21.92
2022-08-29T14:00:51.923Z,19.92
2022-08-29T14:03:23.171Z,18.10
2022-08-29T14:05:56.644Z,21.55
2022-08-29T14:08:26.198Z,18.23
2022-08-29T14:10:55.196Z,20.05
2022-08-29T14:13:24.333Z,21.20
2022-08-29T14:15:53.490Z,23.55
2022-08-29T14:18:23.195Z,20.27
2022-08-29T14:20:53.825Z,18.75
2022-08-29T14:23:23.785Z,21.25
2022-08-29T14:25:53.097Z,20.45
2022-08-29T14:28:22.820Z,22.15
2022-08-29T14:30:52.464Z,23.35
2022-08-29T14:33:23.799Z,22.20
2022-08-29T14:35:55.431Z,18.60
2022-08-29T14:38:24.860Z,21.77
2022-08-29T14:40:54.470Z,20.02
2022-08-29T14:43:23.912Z,18.95
2022-08-29T14:45:54.255Z,22.55
2022-08-29T14:48:23.569Z,25.05
2022-08-29T14:50:52.710Z,19.50
2022-08-29T14:53:24.038Z,23.02
2022-08-29T14:55:55.928Z,22.08
2022-08-29T14:58:25.518Z,22.38
2022-08-29T15:00:54.845Z,26.75
2022-08-29T15:03:25.604Z,20.27
2022-08-29T15:05:54.793Z,21.02
2022-08-29T15:08:25.749Z,20.85
2022-08-29T15:10:54.813Z,20.50
2022-08-29T15:13:24.037Z,22.02
2022-08-29T15:15:53.566Z,20.98
2022-08-29T15:18:52.787Z,20.27
2022-08-29T15:21:12.746Z,22.05
2022-08-29T15:23:43.577Z,21.65
2022-08-29T15:26:12.810Z,21.10
2022-08-29T15:28:42.289Z,26.08
2022-08-29T15:31:11.911Z,23.48
2022-08-29T15:33:41.759Z,19.15
2022-08-29T15:36:11.503Z,20.90
2022-08-29T15:38:40.895Z,19.42
2022-08-29T15:41:11.920Z,21.92
2022-08-29T15:43:40.991Z,22.77
2022-08-29T15:46:10.433Z,22.70
2022-08-29T15:48:39.535Z,20.55
2022-08-29T15:51:08.691Z,25.75
2022-08-29T15:53:37.973Z,26.73
2022-08-29T15:56:07.084Z,24.42
2022-08-29T15:58:38.318Z,24.30
2022-08-29T16:01:10.173Z,25.50
2022-08-29T16:04:08.906Z,19.40
2022-08-29T16:09:15.921Z,24.50
2022-08-29T16:11:46.682Z,20.70
2022-08-29T16:17:07.805Z,20.52
2022-08-29T16:20:56.673Z,24.70
2022-08-29T16:23:27.380Z,21.05
2022-08-29T16:25:56.601Z,22.23
2022-08-29T16:28:25.751Z,17.60
2022-08-29T16:30:56.471Z,19.50
2022-08-29T16:33:25.615Z,20.98
2022-08-29T16:35:54.664Z,18.02
2022-08-29T16:38:23.673Z,17.23
2022-08-29T16:40:52.641Z,18.40
2022-08-29T16:47:57.737Z,20.08
2022-08-29T16:50:28.343Z,17.48
2022-08-29T16:54:01.994Z,19.90
2022-08-29T16:56:33.323Z,20.58
2022-08-29T16:59:04.313Z,22.35
2022-08-29T17:01:37.282Z,18.17
2022-08-29T17:04:10.795Z,20.17
2022-08-29T17:06:41.571Z,21.05
2022-08-29T17:09:17.540Z,20.48
2022-08-29T17:11:45.705Z,20.77
2022-08-29T17:14:20.143Z,21.88
2022-08-29T17:16:51.169Z,19.15
2022-08-29T17:19:23.183Z,19.27
2022-08-29T17:21:52.852Z,24.13
2022-08-29T17:24:23.539Z,18.25
2022-08-29T17:26:54.265Z,19.98
2022-08-29T17:29:26.405Z,21.13
2022-08-29T17:32:00.220Z,19.33
2022-08-29T17:34:31.421Z,21.17
2022-08-29T17:37:00.605Z,18.67
2022-08-29T17:39:31.544Z,19.40
2022-08-29T17:42:07.257Z,17.80
2022-08-29T17:44:36.978Z,20.02
2022-08-29T17:47:35.769Z,18.73
2022-08-29T18:02:11.820Z,13.10
2022-08-29T18:04:40.832Z,10.65
2022-08-29T18:09:38.864Z,11.77
2022-08-29T18:12:10.727Z,9.55
2022-08-29T18:14:42.453Z,10.70
2022-08-29T18:17:12.856Z,13.38
2022-08-29T18:19:42.763Z,10.32
2022-08-29T18:26:46.163Z,10.70
2022-08-29T18:29:16.237Z,13.52
2022-08-29T18:36:02.683Z,7.43
2022-08-29T18:38:31.668Z,11.20
2022-08-29T18:41:00.440Z,8.25
2022-08-29T18:48:03.468Z,9.27
2022-08-29T18:50:35.777Z,8.70
2022-08-29T18:53:10.867Z,14.80
2022-08-29T18:55:40.574Z,11.38
2022-08-29T18:58:09.796Z,13.07
2022-08-29T19:00:39.327Z,9.00
2022-08-29T19:04:03.247Z,10.68
2022-08-29T19:06:37.439Z,9.63
2022-08-29T19:09:37.482Z,13.90
2022-08-29T19:15:51.049Z,13.90
2022-08-29T19:18:20.842Z,11.98
2022-08-29T19:21:06.603Z,13.95
2022-08-29T19:23:58.442Z,13.73
2022-08-29T19:26:30.002Z,13.27
2022-08-29T19:28:59.812Z,22.98
2022-08-29T19:35:43.620Z,12.70
2022-08-29T19:40:43.943Z,14.95
2022-08-29T19:43:16.575Z,18.15
2022-08-29T19:45:46.426Z,19.10
2022-08-29T19:48:15.603Z,15.05
2022-08-29T19:53:26.756Z,18.38
2022-08-29T19:55:57.983Z,14.80
2022-08-29T19:58:31.262Z,15.57
2022-08-29T20:01:01.898Z,12.45
2022-08-29T20:03:40.826Z,16.70
2022-08-29T20:06:10.497Z,17.35
2022-08-29T20:08:43.843Z,14.55
2022-08-29T20:11:13.791Z,14.43
2022-08-29T20:13:50.588Z,18.75
2022-08-29T20:16:21.581Z,13.27
2022-08-29T20:18:52.087Z,12.65
2022-08-29T20:21:23.988Z,12.27
2022-08-29T20:23:57.581Z,13.90
2022-08-29T20:26:39.775Z,11.05
2022-08-29T20:29:39.901Z,10.32
2022-08-29T20:32:15.768Z,18.88
2022-08-29T20:35:37.470Z,11.02
2022-08-29T20:38:12.753Z,14.70
2022-08-29T20:40:43.471Z,10.90
2022-08-29T20:55:59.323Z,10.23
2022-08-29T20:58:30.302Z,11.80
2022-08-29T21:01:09.926Z,9.10
2022-08-29T21:04:00.371Z,10.95
2022-08-29T21:06:31.561Z,13.30
2022-08-29T21:09:02.930Z,15.32
2022-08-29T21:11:59.095Z,11.63
2022-08-29T21:14:33.326Z,12.43
2022-08-29T21:17:04.997Z,10.95
2022-08-29T21:19:36.681Z,15.63
2022-08-29T21:22:06.422Z,11.82
2022-08-29T21:24:35.630Z,10.88
2022-08-29T21:29:43.896Z,11.95
2022-08-29T21:32:46.929Z,11.48
2022-08-29T21:35:24.649Z,10.90
2022-08-29T21:37:54.450Z,17.33
2022-08-29T21:40:26.062Z,11.27
2022-08-29T21:42:59.576Z,11.57
2022-08-29T21:45:32.171Z,9.77
2022-08-29T21:48:03.422Z,9.80
2022-08-29T21:50:36.784Z,8.43
2022-08-29T21:53:09.901Z,10.27
2022-08-29T21:55:39.221Z,7.10
2022-08-29T22:03:15.737Z,10.07
2022-08-29T22:05:48.062Z,7.53
2022-08-29T22:08:17.920Z,10.35
2022-08-29T22:10:50.102Z,11.75
2022-08-29T22:17:01.547Z,9.60
2022-08-29T22:19:31.902Z,9.55
2022-08-29T22:25:18.267Z,10.95
2022-08-29T22:27:47.243Z,7.80
2022-08-29T22:30:16.515Z,13.90
2022-08-29T22:33:12.930Z,10.18
2022-08-29T22:35:47.354Z,8.77
2022-08-29T22:38:16.485Z,11.43
2022-08-29T22:40:45.679Z,13.40
2022-08-29T22:45:43.601Z,9.30
2022-08-29T22:48:13.192Z,8.48
2022-08-29T22:50:57.975Z,10.80
2022-08-29T23:01:29.260Z,10.68
2022-08-29T23:08:14.495Z,11.77
2022-08-29T23:11:11.366Z,10.48
2022-08-29T23:14:08.862Z,9.40
2022-08-29T23:16:43.175Z,9.13
2022-08-29T23:19:15.455Z,11.30
2022-08-29T23:22:36.893Z,15.05
2022-08-29T23:25:09.262Z,8.90
2022-08-29T23:27:38.323Z,11.20
2022-08-29T23:30:11.265Z,10.00
2022-08-29T23:33:29.389Z,13.25
2022-08-29T23:36:01.715Z,9.45
2022-08-29T23:38:30.882Z,8.52
2022-08-29T23:44:34.478Z,8.77
2022-08-29T23:51:15.536Z,16.65
2022-08-29T23:53:45.180Z,10.63
2022-08-29T23:56:17.157Z,9.15
2022-08-29T23:58:48.942Z,10.93
